Time;durP1;ratioP1;P1;durP2;ratioP2;P2;SDS_P1;SDS_P2;PMS_P1;PMS_P2;Temp;Humidity;BMP_temperature;BMP_pressure;BME280_temperature;BME280_humidity;BME280_pressure;Samples;Min_cycle;Max_cycle;Signal;HPM_P1;HPM_P2
2022/02/01 00:02:17;;;;;;;29.43;10.83;;;4.40;1.00;;;;;;5125956;27;20488;-64
2022/02/01 00:07:50;;;;;;;23.00;9.77;;;4.20;1.00;;;;;;5129922;27;20438;-64
2022/02/01 00:12:54;;;;;;;32.90;12.13;;;4.10;1.00;;;;;;5128228;27;20504;-64
2022/02/01 00:37:18;;;;;;;25.63;13.00;;;4.10;8.60;;;;;;5129660;27;20492;-62
2022/02/01 00:39:45;;;;;;;31.93;14.90;;;;;;;;;;5131247;27;20624;-63
2022/02/01 00:42:14;;;;;;;30.77;15.60;;;4.30;1.00;;;;;;5130969;27;20963;-64
2022/02/01 00:44:41;;;;;;;23.47;12.57;;;4.40;1.00;;;;;;5122128;27;20547;-63
2022/02/01 00:47:07;;;;;;;30.37;14.60;;;4.30;1.00;;;;;;5130312;27;20410;-63
2022/02/01 00:49:34;;;;;;;28.93;13.90;;;4.40;1.00;;;;;;5124420;27;20474;-63
2022/02/01 00:52:01;;;;;;;30.03;14.37;;;4.40;1.00;;;;;;5130951;27;20434;-63
2022/02/01 00:54:26;;;;;;;32.27;14.20;;;4.40;1.00;;;;;;5128791;27;20438;-63
2022/02/01 00:56:52;;;;;;;30.60;14.50;;;4.40;1.00;;;;;;5130646;27;20943;-63
2022/02/01 00:59:18;;;;;;;26.13;13.80;;;4.30;1.00;;;;;;5099962;27;20200;-62
2022/02/01 01:01:43;;;;;;;25.50;14.10;;;4.30;1.00;;;;;;5130045;27;20256;-63
2022/02/01 01:04:09;;;;;;;30.17;14.40;;;4.30;1.00;;;;;;5125488;27;20220;-63
2022/02/01 01:06:34;;;;;;;33.40;15.87;;;4.30;1.00;;;;;;5126938;27;20185;-63
2022/02/01 01:09:00;;;;;;;35.00;14.30;;;4.30;1.00;;;;;;5126946;27;20650;-62
2022/02/01 01:11:26;;;;;;;31.43;13.90;;;4.40;1.00;;;;;;5129952;27;20194;-64
2022/02/01 01:16:42;;;;;;;28.30;12.73;;;4.30;1.00;;;;;;5130041;27;20188;-64
2022/02/01 01:43:54;;;;;;;30.67;13.20;;;4.00;1.00;;;;;;5130420;28;20434;-64
2022/02/01 01:54:24;;;;;;;32.67;12.73;;;3.80;1.00;;;;;;5128137;27;20484;-62
2022/02/01 01:56:53;;;;;;;29.47;13.47;;;3.80;1.00;;;;;;5127150;27;20439;-63
2022/02/01 01:59:19;;;;;;;30.60;12.37;;;3.60;1.00;;;;;;5123547;27;20438;-62
2022/02/01 02:01:45;;;;;;;30.43;12.67;;;3.70;1.00;;;;;;5128829;28;20518;-62
2022/02/01 02:04:10;;;;;;;42.53;14.43;;;3.80;1.00;;;;;;5128272;28;20529;-64
2022/02/01 02:06:38;;;;;;;29.03;12.57;;;3.90;1.00;;;;;;5129081;28;20189;-64
2022/02/01 02:09:06;;;;;;;22.90;12.00;;;4.00;1.00;;;;;;5130186;28;20691;-64
2022/02/01 02:16:43;;;;;;;27.13;12.87;;;4.00;1.00;;;;;;5127537;28;20949;-64
2022/02/01 02:19:10;;;;;;;28.00;12.47;;;3.90;1.00;;;;;;5128747;28;20447;-64
2022/02/01 02:21:37;;;;;;;30.50;12.70;;;3.80;1.00;;;;;;5127773;27;20457;-64
2022/02/01 02:24:03;;;;;;;37.87;14.20;;;3.80;1.00;;;;;;5133828;27;20439;-62
2022/02/01 02:26:28;;;;;;;34.23;13.30;;;3.70;1.00;;;;;;5124862;27;20534;-64
2022/02/01 02:28:54;;;;;;;32.37;12.73;;;3.70;1.00;;;;;;5130224;27;20725;-63
2022/02/01 02:31:23;;;;;;;26.67;12.57;;;3.80;1.00;;;;;;5129867;27;20216;-64
2022/02/01 02:33:56;;;;;;;26.60;12.53;;;3.70;1.00;;;;;;5132906;27;20503;-63
2022/02/01 02:36:22;;;;;;;39.33;13.83;;;3.70;1.00;;;;;;5131208;27;20434;-63
2022/02/01 02:39:03;;;;;;;31.90;11.33;;;3.70;1.00;;;;;;5127754;27;20942;-63
2022/02/01 02:41:38;;;;;;;29.33;13.07;;;3.80;1.00;;;;;;5126781;27;20208;-63
2022/02/01 02:46:52;;;;;;;31.23;11.80;;;3.90;1.00;;;;;;5132816;27;20507;-64
2022/02/01 02:49:20;;;;;;;28.50;12.20;;;3.80;1.00;;;;;;5128191;27;20470;-64
2022/02/01 02:51:46;;;;;;;35.27;12.47;;;4.00;1.00;;;;;;5130238;27;20442;-64
2022/02/01 02:54:14;;;;;;;27.60;11.87;;;3.90;1.00;;;;;;5132630;27;20453;-64
2022/02/01 02:56:52;;;;;;;35.73;10.80;;;3.90;1.00;;;;;;5129526;27;20442;-64
2022/02/01 02:59:20;;;;;;;28.50;9.60;;;3.80;1.00;;;;;;5127337;27;20511;-64
2022/02/01 03:01:47;;;;;;;29.90;10.97;;;3.70;1.00;;;;;;5130492;27;20866;-65
2022/02/01 03:04:18;;;;;;;24.13;9.83;;;3.70;1.00;;;;;;5130180;27;21099;-63
2022/02/01 03:06:44;;;;;;;23.60;9.37;;;3.60;1.00;;;;;;5129649;27;20484;-61
2022/02/01 03:09:11;;;;;;;19.70;10.10;;;3.70;1.00;;;;;;5130060;27;20475;-63
2022/02/01 03:11:38;;;;;;;22.77;10.87;;;3.60;1.00;;;;;;5131122;27;20499;-64
2022/02/01 03:14:13;;;;;;;22.23;10.30;;;3.60;1.00;;;;;;5132898;27;20431;-63
2022/02/01 03:22:07;;;;;;;21.83;8.90;;;3.80;1.00;;;;;;5132836;27;20437;-64
2022/02/01 03:24:33;;;;;;;12.97;8.10;;;3.70;1.00;;;;;;5128813;27;20442;-63
2022/02/01 03:26:58;;;;;;;20.33;9.33;;;3.80;1.00;;;;;;5130947;27;20443;-63
2022/02/01 03:29:24;;;;;;;21.10;9.40;;;3.80;1.00;;;;;;5127346;27;21478;-63
2022/02/01 03:31:50;;;;;;;19.40;8.37;;;3.80;1.00;;;;;;5131670;27;20189;-63
2022/02/01 03:34:16;;;;;;;20.90;9.90;;;3.60;1.00;;;;;;5129654;27;20273;-62
2022/02/01 03:36:42;;;;;;;23.17;9.60;;;3.70;1.00;;;;;;5130328;27;20443;-62
2022/02/01 03:39:07;;;;;;;21.57;9.30;;;3.80;1.00;;;;;;5129274;27;20473;-63
2022/02/01 03:41:33;;;;;;;23.90;9.37;;;3.70;1.00;;;;;;5131251;27;20658;-64
2022/02/01 03:44:00;;;;;;;22.47;9.60;;;3.80;1.00;;;;;;5131756;27;20269;-64
2022/02/01 03:46:26;;;;;;;24.43;11.13;;;3.80;1.00;;;;;;5126885;27;20178;-63
2022/02/01 03:48:52;;;;;;;19.53;9.97;;;3.70;1.00;;;;;;5129746;27;20542;-62
2022/02/01 03:51:17;;;;;;;18.10;8.97;;;3.70;1.00;;;;;;5132133;27;20181;-64
2022/02/01 03:53:43;;;;;;;20.63;10.53;;;3.70;1.00;;;;;;5131463;27;20344;-61
2022/02/01 03:56:08;;;;;;;20.77;11.07;;;3.60;1.00;;;;;;5127602;27;20244;-64
2022/02/01 03:58:34;;;;;;;22.73;11.83;;;3.60;1.00;;;;;;5128193;27;20189;-64
2022/02/01 04:01:00;;;;;;;18.63;9.90;;;3.70;1.00;;;;;;5130134;27;20212;-64
2022/02/01 04:03:26;;;;;;;20.40;11.47;;;;;;;;;;5129830;27;20192;-62
2022/02/01 04:05:52;;;;;;;19.67;12.27;;;3.90;1.00;;;;;;5130614;27;20848;-63
2022/02/01 04:08:19;;;;;;;25.00;11.97;;;4.00;1.00;;;;;;5125819;27;20478;-63
2022/02/01 04:10:47;;;;;;;19.90;11.60;;;4.00;1.00;;;;;;5130374;27;20190;-62
2022/02/01 04:13:13;;;;;;;18.77;11.20;;;4.00;1.00;;;;;;5130418;27;20532;-63
2022/02/01 04:15:39;;;;;;;21.27;12.53;;;3.90;1.00;;;;;;5109289;27;21100;-64
2022/02/01 04:18:07;;;;;;;27.57;13.07;;;;;;;;;;5130953;27;20185;-63
2022/02/01 04:20:33;;;;;;;19.90;13.13;;;3.90;1.00;;;;;;5111027;27;20450;-64
2022/02/01 04:22:59;;;;;;;26.73;12.70;;;3.90;1.00;;;;;;5126056;27;20443;-64
2022/02/01 04:25:25;;;;;;;29.30;14.67;;;;;;;;;;5128371;27;20442;-63
2022/02/01 04:27:50;;;;;;;27.47;14.80;;;3.80;1.00;;;;;;5116381;27;20521;-63
2022/02/01 04:30:18;;;;;;;25.47;14.83;;;3.80;1.00;;;;;;5115220;27;20481;-63
2022/02/01 04:32:52;;;;;;;30.73;13.80;;;3.80;1.00;;;;;;5112387;27;20198;-63
2022/02/01 04:35:19;;;;;;;26.40;15.07;;;3.70;1.00;;;;;;5115844;27;20446;-63
2022/02/01 04:37:45;;;;;;;23.97;13.80;;;3.70;1.00;;;;;;5109075;27;20435;-62
2022/02/01 04:40:14;;;;;;;23.30;14.43;;;3.70;1.00;;;;;;5126045;27;20843;-63
2022/02/01 04:42:40;;;;;;;27.23;15.13;;;3.70;1.00;;;;;;5131203;27;20439;-63
2022/02/01 04:45:09;;;;;;;28.13;15.63;;;3.70;1.00;;;;;;5127120;27;20574;-63
2022/02/01 04:47:35;;;;;;;26.03;14.20;;;3.80;1.00;;;;;;5128732;27;20958;-63
2022/02/01 04:50:04;;;;;;;24.40;14.47;;;3.80;1.00;;;;;;5109759;27;20498;-63
2022/02/01 04:52:31;;;;;;;24.83;14.63;;;3.80;1.00;;;;;;5130888;27;20963;-63
2022/02/01 04:54:58;;;;;;;22.67;13.80;;;3.80;1.00;;;;;;5107969;27;20449;-63
2022/02/01 04:57:26;;;;;;;24.40;14.73;;;3.80;1.00;;;;;;5129776;27;20454;-63
2022/02/01 04:59:52;;;;;;;26.50;14.83;;;3.80;1.00;;;;;;5128135;27;20451;-62
2022/02/01 05:02:18;;;;;;;22.43;12.90;;;3.90;1.00;;;;;;5129400;27;20462;-63
2022/02/01 05:04:43;;;;;;;29.60;14.87;;;3.90;1.00;;;;;;5130818;27;20193;-63
2022/02/01 05:07:09;;;;;;;26.47;14.33;;;3.90;1.00;;;;;;5128230;27;20657;-63
2022/02/01 05:09:34;;;;;;;31.27;15.77;;;3.90;1.00;;;;;;5129737;27;20201;-63
2022/02/01 05:12:06;;;;;;;29.13;15.20;;;4.00;1.00;;;;;;5130506;27;20189;-58
2022/02/01 05:14:32;;;;;;;24.53;13.80;;;4.00;1.00;;;;;;5129241;27;20261;-59
2022/02/01 05:16:59;;;;;;;32.03;15.20;;;3.90;1.00;;;;;;5130174;27;20496;-57
2022/02/01 05:22:04;;;;;;;22.70;13.87;;;3.80;1.00;;;;;;5129867;27;20443;-57
2022/02/01 05:24:30;;;;;;;22.77;12.90;;;3.70;1.00;;;;;;5130239;27;20792;-57
2022/02/01 05:26:57;;;;;;;22.57;13.37;;;3.80;1.00;;;;;;5127934;27;20443;-58
2022/02/01 05:29:23;;;;;;;23.13;12.20;;;3.70;1.00;;;;;;5129144;27;20494;-58
2022/02/01 05:31:51;;;;;;;23.10;12.00;;;3.60;1.00;;;;;;5128975;27;20812;-57
2022/02/01 05:34:18;;;;;;;20.40;12.63;;;3.70;1.00;;;;;;5129296;27;20457;-58
2022/02/01 05:36:43;;;;;;;25.63;11.80;;;3.70;1.00;;;;;;5129357;27;20439;-58
2022/02/01 05:39:19;;;;;;;20.07;12.10;;;3.80;1.00;;;;;;5130877;27;20535;-58
2022/02/01 05:41:45;;;;;;;18.30;10.83;;;3.80;1.00;;;;;;5130082;27;20272;-57
2022/02/01 05:44:11;;;;;;;24.97;12.87;;;3.80;1.00;;;;;;5130365;28;21158;-58
2022/02/01 05:46:38;;;;;;;18.37;10.33;;;3.90;1.00;;;;;;5127105;27;20446;-58
2022/02/01 05:49:05;;;;;;;21.37;11.63;;;4.00;1.00;;;;;;5129464;27;20462;-59
2022/02/01 05:51:30;;;;;;;18.67;12.30;;;4.00;1.00;;;;;;5129602;28;20522;-59
2022/02/01 05:53:56;;;;;;;21.33;12.10;;;4.00;1.00;;;;;;5130289;27;20905;-58
2022/02/01 05:56:22;;;;;;;21.10;10.30;;;3.90;1.00;;;;;;5128225;27;20451;-57
2022/02/01 05:58:47;;;;;;;21.20;11.40;;;3.80;1.00;;;;;;5134702;27;20689;-57
2022/02/01 06:01:13;;;;;;;18.10;11.20;;;3.90;1.00;;;;;;5132238;27;20185;-58
2022/02/01 06:03:39;;;;;;;18.00;11.57;;;3.90;1.00;;;;;;5133860;27;20181;-58
2022/02/01 06:06:04;;;;;;;20.30;10.93;;;3.90;1.00;;;;;;5132520;27;20212;-58
2022/02/01 06:08:30;;;;;;;15.90;10.40;;;4.00;1.00;;;;;;5132127;27;20213;-58
2022/02/01 06:10:56;;;;;;;16.40;9.63;;;4.00;1.00;;;;;;5134174;27;20184;-58
2022/02/01 06:13:21;;;;;;;16.43;9.27;;;4.00;1.00;;;;;;5131957;27;20288;-58
2022/02/01 06:15:47;;;;;;;17.67;10.20;;;4.10;1.00;;;;;;5129349;27;20209;-59
2022/02/01 06:18:13;;;;;;;17.00;10.27;;;4.20;1.00;;;;;;5133005;27;20237;-59
2022/02/01 06:20:38;;;;;;;13.43;9.33;;;4.10;1.00;;;;;;5133703;27;20608;-58
2022/02/01 06:23:14;;;;;;;13.60;10.00;;;4.10;1.00;;;;;;5113372;27;20542;-59
2022/02/01 06:25:48;;;;;;;16.43;8.47;;;4.10;1.00;;;;;;5133262;27;20165;-59
2022/02/01 06:28:18;;;;;;;19.73;10.63;;;4.00;1.00;;;;;;5131968;27;20542;-58
2022/02/01 06:30:45;;;;;;;13.83;7.70;;;4.00;1.00;;;;;;5131774;27;20462;-59
2022/02/01 06:33:12;;;;;;;19.43;9.67;;;4.10;1.00;;;;;;5131940;27;20434;-59
2022/02/01 06:35:38;;;;;;;14.03;9.33;;;4.10;1.00;;;;;;5133124;27;20491;-59
2022/02/01 06:38:03;;;;;;;14.80;8.23;;;4.00;1.00;;;;;;5132145;27;20431;-59
2022/02/01 06:40:29;;;;;;;16.10;8.93;;;4.10;1.00;;;;;;5133668;27;20234;-58
2022/02/01 06:42:55;;;;;;;13.67;9.30;;;4.00;1.00;;;;;;5132822;27;20192;-59
2022/02/01 06:45:26;;;;;;;15.77;8.23;;;3.90;1.00;;;;;;5131290;27;20238;-59
2022/02/01 06:47:52;;;;;;;10.47;7.20;;;4.10;1.00;;;;;;5131009;27;20568;-58
2022/02/01 06:50:20;;;;;;;13.40;7.50;;;4.20;1.00;;;;;;5130675;27;20470;-59
2022/02/01 06:52:47;;;;;;;11.40;7.47;;;4.20;1.00;;;;;;5133438;27;20454;-59
2022/02/01 06:55:13;;;;;;;13.50;7.97;;;4.30;1.00;;;;;;5132358;27;20445;-59
2022/02/01 06:57:40;;;;;;;9.53;7.20;;;4.30;1.00;;;;;;5133402;27;20938;-59
2022/02/01 07:00:08;;;;;;;13.83;7.93;;;4.30;1.00;;;;;;5130009;27;20483;-59
2022/02/01 07:02:34;;;;;;;12.20;7.17;;;4.30;1.00;;;;;;5133147;27;20502;-59
2022/02/01 07:05:01;;;;;;;10.70;8.50;;;4.20;1.00;;;;;;5114640;27;20507;-58
2022/02/01 07:07:27;;;;;;;13.50;8.57;;;4.00;1.00;;;;;;5131743;27;20443;-59
2022/02/01 07:09:52;;;;;;;12.20;8.20;;;4.00;1.00;;;;;;5133231;27;20519;-59
2022/02/01 07:12:18;;;;;;;20.07;8.53;;;;;;;;;;5133494;27;20174;-60
2022/02/01 07:14:44;;;;;;;14.10;9.27;;;4.00;1.00;;;;;;5132730;27;20260;-59
2022/02/01 07:17:10;;;;;;;16.60;9.80;;;4.00;1.00;;;;;;5133228;27;20841;-60
2022/02/01 07:19:35;;;;;;;18.60;10.30;;;4.00;1.00;;;;;;5128787;27;20170;-59
2022/02/01 07:22:01;;;;;;;18.03;9.20;;;4.00;1.00;;;;;;5133347;27;20183;-59
2022/02/01 07:24:36;;;;;;;17.53;10.10;;;4.10;1.00;;;;;;5131907;27;20177;-59
2022/02/01 07:27:11;;;;;;;13.73;8.83;;;3.90;1.00;;;;;;5132857;27;20180;-59
2022/02/01 07:29:36;;;;;;;17.90;10.20;;;3.90;1.00;;;;;;5130949;27;20450;-59
2022/02/01 07:32:02;;;;;;;18.73;9.77;;;3.90;1.00;;;;;;5132696;27;20773;-59
2022/02/01 07:34:28;;;;;;;14.80;9.83;;;3.90;1.00;;;;;;5129982;27;20610;-59
2022/02/01 07:36:54;;;;;;;24.00;11.10;;;3.90;1.00;;;;;;5133256;27;21053;-60
2022/02/01 07:39:19;;;;;;;20.03;11.97;;;3.90;1.00;;;;;;5133032;27;20467;-60
2022/02/01 07:41:45;;;;;;;19.80;11.03;;;;;;;;;;5133016;27;20173;-60
2022/02/01 07:44:11;;;;;;;22.90;10.67;;;3.80;1.00;;;;;;5113716;27;20515;-59
2022/02/01 07:46:36;;;;;;;19.80;10.30;;;3.70;1.00;;;;;;5132149;27;20891;-60
2022/02/01 07:49:03;;;;;;;17.17;10.77;;;3.70;1.00;;;;;;5129739;27;20685;-59
2022/02/01 07:51:28;;;;;;;21.50;11.63;;;3.80;1.00;;;;;;5130662;27;20177;-60
2022/02/01 07:53:54;;;;;;;15.57;10.10;;;;;;;;;;5128719;27;20958;-60
2022/02/01 07:56:20;;;;;;;18.13;11.57;;;3.80;1.00;;;;;;5132123;27;20186;-60
2022/02/01 07:58:45;;;;;;;18.77;10.93;;;3.80;1.00;;;;;;5128469;27;20446;-60
2022/02/01 08:01:11;;;;;;;17.77;10.30;;;3.80;1.00;;;;;;5131930;27;20500;-59
2022/02/01 08:03:36;;;;;;;15.77;9.37;;;3.70;1.00;;;;;;5132149;27;20180;-60
2022/02/01 08:06:02;;;;;;;16.30;9.57;;;;;;;;;;5132664;27;20181;-59
2022/02/01 08:08:28;;;;;;;22.70;12.03;;;3.90;1.00;;;;;;5132049;27;20659;-59
2022/02/01 08:10:56;;;;;;;19.37;11.10;;;4.00;1.00;;;;;;5132485;27;20442;-60
2022/02/01 08:21:25;;;;;;;20.10;9.40;;;3.90;1.00;;;;;;5132754;27;20431;-59
2022/02/01 08:23:51;;;;;;;11.60;7.27;;;3.90;1.00;;;;;;5132160;27;20413;-61
2022/02/01 08:26:17;;;;;;;15.77;6.73;;;3.90;1.00;;;;;;5132085;27;20926;-59
2022/02/01 08:28:43;;;;;;;15.67;8.37;;;3.80;1.00;;;;;;5132082;27;20709;-59
2022/02/01 08:31:09;;;;;;;13.07;6.60;;;3.90;1.00;;;;;;5132337;27;20185;-59
2022/02/01 08:33:36;;;;;;;17.93;7.80;;;3.90;1.00;;;;;;5132152;27;20184;-59
2022/02/01 08:36:02;;;;;;;11.23;6.70;;;4.00;1.00;;;;;;5132109;27;20435;-59
2022/02/01 08:38:27;;;;;;;14.50;8.47;;;4.00;1.00;;;;;;5132368;27;20429;-60
2022/02/01 08:40:53;;;;;;;11.53;7.70;;;4.00;1.00;;;;;;5132080;27;20184;-59
2022/02/01 08:43:19;;;;;;;16.87;7.60;;;4.10;1.00;;;;;;5131929;27;20185;-59
2022/02/01 08:45:48;;;;;;;13.03;6.47;;;4.20;1.00;;;;;;5131894;27;20220;-59
2022/02/01 08:48:13;;;;;;;15.30;7.03;;;4.30;1.00;;;;;;5113703;27;20488;-59
2022/02/01 08:50:39;;;;;;;13.83;7.60;;;4.30;1.00;;;;;;5132129;27;20803;-60
2022/02/01 08:56:01;;;;;;;13.20;6.87;;;4.30;1.00;;;;;;5132401;27;20185;-59
2022/02/01 08:58:26;;;;;;;12.27;6.00;;;;;;;;;;5131929;27;20459;-59
2022/02/01 09:00:53;;;;;;;18.13;6.70;;;4.40;1.00;;;;;;5132064;27;20435;-60
2022/02/01 09:03:19;;;;;;;11.60;7.03;;;;;;;;;;5132552;27;20439;-59
2022/02/01 09:05:48;;;;;;;12.03;6.60;;;4.50;1.00;;;;;;5131992;27;20857;-59
2022/02/01 09:08:13;;;;;;;16.30;6.87;;;4.50;1.00;;;;;;5113314;27;20948;-60
2022/02/01 09:10:39;;;;;;;19.27;7.00;;;4.50;1.00;;;;;;5132247;27;20534;-59
2022/02/01 09:13:05;;;;;;;16.17;6.90;;;4.60;1.00;;;;;;5131997;27;20472;-59
2022/02/01 09:15:31;;;;;;;11.67;6.33;;;4.70;1.00;;;;;;5110355;27;20409;-59
2022/02/01 09:17:57;;;;;;;11.47;4.90;;;4.70;1.00;;;;;;5131696;27;20813;-59
2022/02/01 09:20:25;;;;;;;15.17;6.13;;;4.70;1.00;;;;;;5131497;27;20185;-59
2022/02/01 09:22:51;;;;;;;15.10;5.33;;;4.60;1.00;;;;;;5128759;27;20439;-59
2022/02/01 09:25:17;;;;;;;13.43;5.03;;;4.90;1.00;;;;;;5131425;27;20430;-60
2022/02/01 09:27:44;;;;;;;10.67;5.70;;;4.80;1.00;;;;;;5131264;27;20178;-59
2022/02/01 09:30:11;;;;;;;12.37;4.57;;;4.80;1.00;;;;;;5130861;27;20458;-59
2022/02/01 09:32:36;;;;;;;10.93;4.93;;;4.80;1.00;;;;;;5133095;27;20530;-59
2022/02/01 09:35:02;;;;;;;13.37;4.87;;;4.70;1.00;;;;;;5131010;27;20488;-59
2022/02/01 09:37:28;;;;;;;11.07;4.43;;;4.80;1.00;;;;;;5131059;27;20177;-59
2022/02/01 09:39:53;;;;;;;10.47;4.43;;;4.70;1.00;;;;;;5131539;27;20196;-60
2022/02/01 09:42:23;;;;;;;13.30;4.77;;;4.70;1.00;;;;;;5131323;27;20189;-59
2022/02/01 09:44:52;;;;;;;6.37;3.80;;;4.90;1.00;;;;;;5130827;28;20228;-59
2022/02/01 09:47:17;;;;;;;11.93;5.10;;;4.90;1.00;;;;;;5131081;28;20484;-59
2022/02/01 09:49:45;;;;;;;9.73;4.07;;;5.00;1.00;;;;;;5131002;28;20462;-59
2022/02/01 09:52:11;;;;;;;9.90;4.13;;;5.00;1.00;;;;;;5131338;28;20198;-59
2022/02/01 09:54:37;;;;;;;14.33;4.23;;;;;;;;;;5130826;28;20434;-60
2022/02/01 09:57:07;;;;;;;7.97;4.20;;;5.10;1.00;;;;;;5131042;28;20234;-59
2022/02/01 09:59:34;;;;;;;12.53;4.30;;;5.00;1.00;;;;;;5130588;28;20960;-60
2022/02/01 10:02:12;;;;;;;10.10;3.23;;;4.90;1.00;;;;;;5132066;27;20442;-59
2022/02/01 10:04:38;;;;;;;11.67;4.90;;;;;;;;;;5131052;27;21192;-59
2022/02/01 10:07:09;;;;;;;13.00;4.40;;;4.90;1.00;;;;;;5131325;28;20526;-59
2022/02/01 10:09:46;;;;;;;8.90;3.67;;;4.90;1.00;;;;;;5130753;28;20470;-59
2022/02/01 10:12:17;;;;;;;6.37;4.00;;;5.10;1.00;;;;;;5112328;28;20525;-59
2022/02/01 10:14:51;;;;;;;7.13;3.30;;;5.00;1.00;;;;;;5130682;27;21025;-59
2022/02/01 10:17:28;;;;;;;5.73;2.83;;;5.00;1.00;;;;;;5130780;28;20434;-59
2022/02/01 10:19:54;;;;;;;10.20;3.70;;;5.10;1.00;;;;;;5111916;28;20442;-59
2022/02/01 10:22:29;;;;;;;7.43;3.40;;;5.10;1.00;;;;;;5130348;28;20479;-59
2022/02/01 10:24:55;;;;;;;11.40;2.63;;;5.20;1.00;;;;;;5112020;28;20181;-59
2022/02/01 10:27:21;;;;;;;11.00;3.50;;;5.20;1.00;;;;;;5130537;27;20439;-59
2022/02/01 10:30:10;;;;;;;14.57;3.73;;;5.40;1.00;;;;;;5129473;27;20250;-59
2022/02/01 10:36:07;;;;;;;7.03;2.80;;;5.60;1.00;;;;;;5130290;28;20439;-59
2022/02/01 10:38:12;;;;;;;9.73;3.43;;;5.60;1.00;;;;;;5119603;28;20442;-59
2022/02/01 10:40:42;;;;;;;11.27;2.80;;;5.70;1.00;;;;;;5130579;28;20434;-59
2022/02/01 10:43:19;;;;;;;12.80;2.97;;;5.60;1.00;;;;;;5132132;27;20260;-59
2022/02/01 10:45:45;;;;;;;7.33;2.30;;;5.40;1.00;;;;;;5133810;27;20516;-59
2022/02/01 10:48:17;;;;;;;8.47;3.53;;;5.40;1.00;;;;;;5115140;27;20541;-59
2022/02/01 10:50:44;;;;;;;12.00;2.53;;;5.20;1.00;;;;;;5115166;27;20467;-59
2022/02/01 10:53:17;;;;;;;9.00;2.90;;;5.30;1.00;;;;;;5133755;27;20517;-59
2022/02/01 10:55:43;;;;;;;7.40;3.60;;;5.50;1.00;;;;;;5134125;27;20437;-59
2022/02/01 10:58:11;;;;;;;11.57;2.70;;;;;;;;;;5133840;27;20453;-59
2022/02/01 11:00:37;;;;;;;6.07;2.30;;;5.60;1.00;;;;;;5134391;27;20438;-60
2022/02/01 11:03:03;;;;;;;6.70;2.40;;;5.60;1.00;;;;;;5133632;27;20438;-60
2022/02/01 11:05:30;;;;;;;13.03;3.67;;;5.70;1.00;;;;;;5133631;27;20435;-60
2022/02/01 11:07:56;;;;;;;14.53;3.87;;;5.60;1.00;;;;;;5133614;27;20522;-60
2022/02/01 11:10:22;;;;;;;7.60;2.53;;;5.50;1.00;;;;;;5130119;27;20557;-59
2022/02/01 11:12:47;;;;;;;14.27;2.90;;;5.50;1.00;;;;;;5133827;27;20435;-59
2022/02/01 11:15:21;;;;;;;16.60;4.10;;;5.70;1.00;;;;;;5133744;27;20429;-60
2022/02/01 11:17:49;;;;;;;5.27;2.30;;;5.70;1.00;;;;;;5133729;27;20230;-60
2022/02/01 11:20:25;;;;;;;9.33;2.40;;;;;;;;;;5114973;27;20491;-59
2022/02/01 11:23:07;;;;;;;8.50;3.00;;;5.60;1.00;;;;;;5132887;27;20992;-59
2022/02/01 11:25:43;;;;;;;8.00;3.37;;;5.50;1.00;;;;;;5133418;27;20439;-59
2022/02/01 11:28:14;;;;;;;8.03;2.33;;;5.30;1.00;;;;;;5114917;27;20442;-59
2022/02/01 11:30:44;;;;;;;7.70;2.93;;;5.40;1.00;;;;;;5134042;27;20817;-59
2022/02/01 11:33:13;;;;;;;9.00;2.03;;;5.50;1.00;;;;;;5133408;27;20443;-59
2022/02/01 11:35:40;;;;;;;11.67;2.57;;;5.60;1.00;;;;;;5133250;27;20420;-60
2022/02/01 11:38:13;;;;;;;15.03;2.50;;;5.50;1.00;;;;;;5133374;27;20781;-60
2022/02/01 11:40:49;;;;;;;10.63;2.07;;;5.60;1.00;;;;;;5116931;27;20451;-59
2022/02/01 11:43:17;;;;;;;12.03;2.33;;;5.60;1.00;;;;;;5133383;27;20534;-59
2022/02/01 11:45:53;;;;;;;11.13;2.90;;;5.50;1.00;;;;;;5132978;27;20930;-59
2022/02/01 11:48:25;;;;;;;6.30;2.33;;;;;;;;;;5133161;27;20438;-59
2022/02/01 11:50:58;;;;;;;8.00;2.30;;;5.40;1.00;;;;;;5114472;27;20514;-59
2022/02/01 11:53:35;;;;;;;9.50;2.70;;;5.50;1.00;;;;;;5132951;27;20438;-59
2022/02/01 11:56:03;;;;;;;7.63;2.57;;;5.60;1.00;;;;;;5133465;27;20459;-59
2022/02/01 11:58:39;;;;;;;11.90;2.73;;;5.50;1.00;;;;;;5129057;27;20431;-59
2022/02/01 12:01:31;;;;;;;12.93;3.53;;;5.40;1.00;;;;;;5133291;27;20458;-60
2022/02/01 12:04:15;;;;;;;6.23;2.40;;;5.70;1.00;;;;;;5132409;27;20459;-60
2022/02/01 12:06:48;;;;;;;6.30;2.23;;;5.70;1.00;;;;;;5132823;27;20435;-59
2022/02/01 12:09:21;;;;;;;9.03;2.33;;;5.70;1.00;;;;;;5132716;27;20821;-59
2022/02/01 12:11:58;;;;;;;6.67;2.10;;;5.70;1.00;;;;;;5132764;27;20435;-59
2022/02/01 12:14:25;;;;;;;3.63;2.20;;;5.80;1.00;;;;;;5114258;27;20438;-59
2022/02/01 12:16:52;;;;;;;12.20;3.70;;;5.60;1.00;;;;;;5132462;27;20934;-59
2022/02/01 12:19:37;;;;;;;9.40;2.70;;;5.60;1.00;;;;;;5132491;27;20904;-58
2022/02/01 12:22:25;;;;;;;18.47;2.53;;;5.80;1.00;;;;;;5133370;27;20861;-60
2022/02/01 12:24:52;;;;;;;11.50;2.40;;;6.00;1.00;;;;;;5130808;27;20434;-60
2022/02/01 12:27:18;;;;;;;6.30;2.80;;;;;;;;;;5132547;27;20431;-60
2022/02/01 12:29:44;;;;;;;9.57;4.10;;;6.00;1.00;;;;;;5114620;27;20930;-59
2022/02/01 12:32:10;;;;;;;6.67;3.20;;;5.80;1.00;;;;;;5132463;27;20427;-59
2022/02/01 12:34:37;;;;;;;12.43;3.80;;;5.90;1.00;;;;;;5132358;27;20571;-60
2022/02/01 12:37:03;;;;;;;10.07;2.70;;;6.10;1.00;;;;;;5113592;27;20975;-59
2022/02/01 12:39:33;;;;;;;8.30;2.50;;;6.10;1.00;;;;;;5111735;27;20457;-60
2022/02/01 12:42:11;;;;;;;7.10;2.50;;;6.30;1.00;;;;;;5132196;27;20825;-60
2022/02/01 12:47:24;;;;;;;6.83;2.87;;;6.60;1.00;;;;;;5131837;27;20434;-60
2022/02/01 12:49:52;;;;;;;5.20;2.23;;;6.60;1.00;;;;;;5131831;27;21038;-60
2022/02/01 12:52:27;;;;;;;6.30;2.13;;;6.60;1.00;;;;;;5131696;27;20796;-60
2022/02/01 12:55:05;;;;;;;3.87;1.77;;;6.50;1.00;;;;;;5113653;27;20550;-59
2022/02/01 12:57:33;;;;;;;5.13;2.10;;;6.50;1.00;;;;;;5129758;27;20438;-60
2022/02/01 13:00:12;;;;;;;8.47;2.23;;;6.20;1.00;;;;;;5132015;27;20445;-60
2022/02/01 13:02:38;;;;;;;3.53;1.60;;;;;;;;;;5131633;27;20466;-59
2022/02/01 13:05:13;;;;;;;11.90;2.70;;;6.20;1.00;;;;;;5112584;27;20985;-59
2022/02/01 13:07:56;;;;;;;9.83;2.37;;;6.10;1.00;;;;;;5112414;27;20450;-59
2022/02/01 13:16:38;;;;;;;7.80;2.60;;;6.30;1.00;;;;;;5131926;27;20935;-60
2022/02/01 13:21:36;;;;;;;13.13;5.90;;;6.40;1.00;;;;;;5131342;27;20446;-60
2022/02/01 13:24:03;;;;;;;5.30;2.10;;;6.60;1.00;;;;;;5131307;27;20529;-59
2022/02/01 13:26:31;;;;;;;9.30;4.97;;;6.70;1.00;;;;;;5132912;27;20463;-59
2022/02/01 13:29:14;;;;;;;7.80;2.80;;;6.70;1.00;;;;;;5131338;27;20715;-60
2022/02/01 13:31:51;;;;;;;6.90;2.90;;;6.80;1.00;;;;;;5131354;27;20427;-60
2022/02/01 13:34:30;;;;;;;8.17;2.30;;;6.50;1.00;;;;;;5131420;27;20919;-60
2022/02/01 13:36:57;;;;;;;9.83;2.90;;;6.50;1.00;;;;;;5131332;27;20427;-59
2022/02/01 13:39:34;;;;;;;7.07;3.17;;;6.20;1.00;;;;;;5131349;27;20427;-60
2022/02/01 13:42:08;;;;;;;9.00;2.47;;;6.20;1.00;;;;;;5130950;27;20535;-59
2022/02/01 13:44:34;;;;;;;9.80;2.80;;;6.20;1.00;;;;;;5130581;27;20467;-59
2022/02/01 13:47:10;;;;;;;6.80;2.77;;;6.20;1.00;;;;;;5112216;28;20522;-60
2022/02/01 13:49:38;;;;;;;3.30;2.00;;;6.40;1.00;;;;;;5130647;28;20654;-59
2022/02/01 13:52:06;;;;;;;6.10;3.17;;;6.50;1.00;;;;;;5130700;27;20884;-60
2022/02/01 13:54:46;;;;;;;8.70;3.60;;;6.50;1.00;;;;;;5130354;28;20526;-60
2022/02/01 13:57:22;;;;;;;6.80;3.90;;;6.70;1.00;;;;;;5131020;27;20426;-60
2022/02/01 13:59:49;;;;;;;5.90;2.30;;;6.70;1.00;;;;;;5130665;28;20461;-59
2022/02/01 14:02:24;;;;;;;5.77;2.60;;;6.40;1.00;;;;;;5130829;27;20876;-60
2022/02/01 14:05:01;;;;;;;6.07;3.30;;;6.30;1.00;;;;;;5130721;28;20855;-60
2022/02/01 14:07:56;;;;;;;3.43;2.73;;;6.20;1.00;;;;;;5130833;28;20431;-60
2022/02/01 14:10:35;;;;;;;4.97;2.50;;;6.20;1.00;;;;;;5130075;28;20494;-59
2022/02/01 14:29:08;;;;;;;2.90;2.10;;;6.30;1.00;;;;;;5133499;27;20474;-60
2022/02/01 14:34:23;;;;;;;3.27;2.20;;;6.40;1.00;;;;;;5134264;27;20479;-59
2022/02/01 14:36:51;;;;;;;4.90;2.63;;;6.30;1.00;;;;;;5134070;27;21019;-59
2022/02/01 14:44:48;;;;;;;2.77;2.57;;;6.20;1.00;;;;;;5134034;27;20561;-60
2022/02/01 14:47:22;;;;;;;2.50;1.87;;;9.40;1.00;;;;;;5134156;27;20472;-60
2022/02/01 14:49:49;;;;;;;6.03;2.53;;;6.30;1.00;;;;;;5133889;27;20921;-61
2022/02/01 14:52:15;;;;;;;1.97;1.83;;;6.30;1.00;;;;;;5114860;27;20443;-59
2022/02/01 14:54:51;;;;;;;2.00;1.80;;;6.20;1.00;;;;;;5134060;27;20447;-60
2022/02/01 15:13:37;;;;;;;1.40;1.30;;;5.90;1.00;;;;;;5133853;27;20430;-60
2022/02/01 15:16:04;;;;;;;1.57;1.37;;;6.10;1.00;;;;;;5133544;27;20924;-60
2022/02/01 15:18:30;;;;;;;2.90;1.27;;;6.00;1.00;;;;;;5133718;27;20427;-60
2022/02/01 15:20:56;;;;;;;1.50;1.07;;;5.90;1.00;;;;;;5134066;27;20530;-60
2022/02/01 15:23:22;;;;;;;1.67;1.10;;;5.90;1.00;;;;;;5133446;27;20509;-60
2022/02/01 15:25:48;;;;;;;1.47;1.37;;;6.10;1.00;;;;;;5133474;27;20178;-60
2022/02/01 15:28:15;;;;;;;1.40;1.10;;;6.00;1.00;;;;;;5115679;27;20578;-60
2022/02/01 15:30:41;;;;;;;1.77;1.07;;;5.90;1.00;;;;;;5114796;27;20451;-60
2022/02/01 15:33:07;;;;;;;2.70;1.23;;;5.90;1.00;;;;;;5133644;27;20468;-60